createdAt,value
2023-01-13T00:01:09.879Z,0.57
2023-01-13T00:03:36.966Z,0.47
2023-01-13T00:06:04.601Z,0.50
2023-01-13T00:08:31.434Z,0.80
2023-01-13T00:10:57.845Z,0.70
2023-01-13T00:13:27.464Z,0.40
2023-01-13T00:16:04.165Z,0.35
2023-01-13T00:18:30.829Z,0.70
2023-01-13T00:21:05.581Z,0.47
2023-01-13T00:23:34.387Z,0.47
2023-01-13T00:26:03.410Z,0.50
2023-01-13T00:28:29.901Z,0.50
2023-01-13T00:30:58.338Z,0.40
2023-01-13T00:33:25.582Z,0.68
2023-01-13T00:35:56.864Z,0.38
2023-01-13T00:38:23.313Z,0.25
2023-01-13T00:41:09.548Z,0.57
2023-01-13T00:43:37.219Z,0.60
2023-01-13T00:46:08.238Z,0.38
2023-01-13T00:48:35.399Z,0.35
2023-01-13T00:51:11.384Z,0.40
2023-01-13T00:53:42.953Z,0.47
2023-01-13T00:56:15.068Z,0.73
2023-01-13T00:58:42.869Z,0.40
2023-01-13T01:01:12.727Z,0.40
2023-01-13T01:03:40.147Z,1.88
2023-01-13T01:06:07.856Z,0.38
2023-01-13T01:08:35.713Z,0.55
2023-01-13T01:11:07.637Z,0.43
2023-01-13T01:13:34.058Z,0.25
2023-01-13T01:16:06.705Z,0.22
2023-01-13T01:18:38.437Z,0.60
2023-01-13T01:21:06.131Z,0.30
2023-01-13T01:23:33.726Z,0.43
2023-01-13T01:26:06.423Z,0.30
2023-01-13T01:28:34.495Z,0.22
2023-01-13T01:31:06.422Z,0.20
2023-01-13T01:33:32.889Z,0.28
2023-01-13T01:36:03.751Z,0.63
2023-01-13T01:38:30.778Z,1.30
2023-01-13T01:40:57.209Z,0.30
2023-01-13T01:44:02.337Z,0.32
2023-01-13T01:46:33.253Z,0.10
2023-01-13T01:49:12.622Z,0.30
2023-01-13T01:51:46.764Z,0.40
2023-01-13T01:54:18.924Z,0.30
2023-01-13T01:56:46.516Z,0.20
2023-01-13T01:59:14.012Z,0.20
2023-01-13T02:01:42.060Z,0.35
2023-01-13T02:04:16.648Z,0.20
2023-01-13T02:06:44.283Z,0.10
2023-01-13T02:09:11.158Z,0.32
2023-01-13T02:11:56.353Z,0.45
2023-01-13T02:14:26.750Z,0.28
2023-01-13T02:17:01.360Z,0.30
2023-01-13T02:20:04.622Z,0.20
2023-01-13T02:22:46.594Z,0.17
2023-01-13T02:25:43.607Z,0.30
2023-01-13T02:29:06.789Z,0.28
2023-01-13T02:31:42.904Z,0.22
2023-01-13T02:34:33.895Z,0.30
2023-01-13T02:37:07.382Z,0.20
2023-01-13T02:39:45.413Z,0.10
2023-01-13T02:42:37.225Z,0.20
2023-01-13T02:45:10.625Z,0.17
2023-01-13T02:47:40.264Z,0.22
2023-01-13T02:50:17.740Z,0.20
2023-01-13T02:52:58.691Z,0.20
2023-01-13T02:55:37.464Z,0.20
2023-01-13T02:58:07.937Z,0.20
2023-01-13T03:00:36.796Z,0.15
2023-01-13T03:03:03.554Z,0.10
2023-01-13T03:05:33.041Z,0.20
2023-01-13T03:08:15.640Z,0.20
2023-01-13T03:11:09.034Z,0.30
2023-01-13T03:13:59.667Z,0.20
2023-01-13T03:16:32.233Z,0.55
2023-01-13T03:19:17.290Z,0.10
2023-01-13T03:21:59.229Z,0.10
2023-01-13T03:24:31.749Z,0.20
2023-01-13T03:27:04.349Z,0.20
2023-01-13T03:29:36.886Z,0.20
2023-01-13T03:32:16.158Z,0.20
2023-01-13T03:34:51.590Z,0.20
2023-01-13T03:37:21.248Z,0.30
2023-01-13T03:39:52.787Z,0.10
2023-01-13T03:42:26.068Z,0.10
2023-01-13T03:45:15.429Z,0.10
2023-01-13T03:47:47.977Z,0.20
2023-01-13T03:50:17.435Z,0.10
2023-01-13T03:52:47.405Z,0.15
2023-01-13T03:55:20.656Z,0.10
2023-01-13T03:58:14.176Z,0.15
2023-01-13T04:03:14.034Z,0.10
2023-01-13T04:05:43.923Z,0.20
2023-01-13T04:08:26.090Z,0.22
2023-01-13T04:10:58.323Z,0.30
2023-01-13T04:13:28.668Z,0.10
2023-01-13T04:15:55.275Z,0.10
2023-01-13T04:18:33.002Z,0.20
2023-01-13T04:21:02.058Z,0.40
2023-01-13T04:23:29.509Z,0.47
2023-01-13T04:25:57.020Z,0.10
2023-01-13T04:28:24.351Z,0.28
2023-01-13T04:30:50.924Z,0.30
2023-01-13T04:33:19.089Z,0.20
2023-01-13T04:35:46.824Z,0.30
2023-01-13T04:38:16.122Z,0.20
2023-01-13T04:40:42.975Z,0.13
2023-01-13T04:43:09.533Z,0.08
2023-01-13T04:45:36.153Z,0.20
2023-01-13T04:48:02.663Z,0.20
2023-01-13T04:50:29.058Z,0.30
2023-01-13T04:52:55.846Z,0.95
2023-01-13T04:55:24.049Z,0.10
2023-01-13T04:57:50.544Z,0.20
2023-01-13T05:00:20.382Z,0.20
2023-01-13T05:02:49.375Z,0.20
2023-01-13T05:05:16.470Z,0.10
2023-01-13T05:07:44.015Z,0.10
2023-01-13T05:10:12.063Z,0.20
2023-01-13T05:12:57.279Z,0.05
2023-01-13T05:15:42.305Z,0.10
2023-01-13T05:18:08.907Z,0.00
2023-01-13T05:20:35.270Z,0.10
2023-01-13T05:23:20.361Z,0.20
2023-01-13T05:25:48.020Z,0.82
2023-01-13T05:28:15.019Z,0.47
2023-01-13T05:30:46.353Z,0.50
2023-01-13T05:33:15.099Z,0.68
2023-01-13T05:35:43.198Z,0.73
2023-01-13T05:38:10.459Z,0.63
2023-01-13T05:40:59.399Z,0.25
2023-01-13T05:43:26.762Z,0.28
2023-01-13T05:45:56.303Z,0.15
2023-01-13T05:48:25.024Z,0.22
2023-01-13T05:50:51.426Z,0.50
2023-01-13T05:53:18.552Z,0.22
2023-01-13T05:55:45.855Z,0.20
2023-01-13T05:58:14.859Z,0.43
2023-01-13T06:00:42.103Z,0.40
2023-01-13T06:03:09.270Z,0.57
2023-01-13T06:05:35.940Z,0.30
2023-01-13T06:08:05.060Z,0.28
2023-01-13T06:10:31.539Z,0.38
2023-01-13T06:12:58.196Z,1.00
2023-01-13T06:15:25.400Z,0.30
2023-01-13T06:17:52.125Z,0.65
2023-01-13T06:20:19.368Z,0.57
2023-01-13T06:22:49.099Z,0.30
2023-01-13T06:25:39.952Z,0.30
2023-01-13T06:28:06.570Z,0.32
2023-01-13T06:30:42.682Z,0.20
2023-01-13T06:33:13.467Z,0.15
2023-01-13T06:35:43.421Z,0.30
2023-01-13T06:38:13.262Z,0.15
2023-01-13T06:40:42.309Z,0.10
2023-01-13T06:43:16.354Z,0.10
2023-01-13T06:45:52.354Z,0.17
2023-01-13T06:48:22.000Z,0.05
2023-01-13T06:50:48.651Z,0.30
2023-01-13T06:53:15.129Z,0.43
2023-01-13T06:55:41.591Z,0.20
2023-01-13T06:58:08.244Z,0.20
2023-01-13T07:00:37.577Z,0.57
2023-01-13T07:03:15.343Z,0.30
2023-01-13T07:05:43.240Z,0.20
2023-01-13T07:08:10.542Z,0.20
2023-01-13T07:10:37.207Z,0.20
2023-01-13T07:13:23.259Z,0.45
2023-01-13T07:16:01.631Z,0.22
2023-01-13T07:18:31.290Z,0.20
2023-01-13T07:21:00.101Z,0.20
2023-01-13T07:23:31.857Z,0.13
2023-01-13T07:25:59.267Z,0.50
2023-01-13T07:28:26.799Z,0.57
2023-01-13T07:30:53.943Z,0.65
2023-01-13T07:33:20.777Z,0.40
2023-01-13T07:35:48.514Z,0.52
2023-01-13T07:38:15.670Z,0.50
2023-01-13T07:40:42.085Z,0.40
2023-01-13T07:43:31.386Z,0.43
2023-01-13T07:46:02.792Z,0.38
2023-01-13T07:48:30.253Z,0.38
2023-01-13T07:50:56.772Z,0.30
2023-01-13T07:53:25.830Z,0.68
2023-01-13T07:55:56.773Z,1.00
2023-01-13T07:58:24.653Z,0.85
2023-01-13T08:00:51.489Z,0.68
2023-01-13T08:03:18.192Z,0.30
2023-01-13T08:05:44.917Z,2.08
2023-01-13T08:08:11.336Z,1.05
2023-01-13T08:10:37.918Z,0.95
2023-01-13T08:13:18.138Z,0.40
2023-01-13T08:15:45.332Z,0.30
2023-01-13T08:18:12.188Z,1.00
2023-01-13T08:20:38.603Z,0.95
2023-01-13T08:23:07.244Z,1.30
2023-01-13T08:25:34.317Z,0.20
2023-01-13T08:28:00.804Z,0.30
2023-01-13T08:30:30.433Z,0.40
2023-01-13T08:32:56.989Z,0.40
2023-01-13T08:35:24.047Z,0.52
2023-01-13T08:37:50.533Z,0.28
2023-01-13T08:40:18.323Z,0.20
2023-01-13T08:42:46.478Z,0.25
2023-01-13T08:45:14.767Z,0.52
2023-01-13T08:47:41.270Z,0.30
2023-01-13T08:50:08.828Z,0.32
2023-01-13T08:52:35.373Z,0.40
2023-01-13T08:55:01.841Z,0.82
2023-01-13T08:57:28.672Z,0.20
2023-01-13T08:59:55.294Z,0.40
2023-01-13T09:02:23.794Z,0.20
2023-01-13T09:04:50.879Z,0.28
2023-01-13T09:07:17.536Z,0.45
2023-01-13T09:09:45.477Z,0.35
2023-01-13T09:12:32.596Z,0.47
2023-01-13T09:14:59.509Z,0.68
2023-01-13T09:17:28.838Z,0.65
2023-01-13T09:19:55.369Z,0.30
2023-01-13T09:22:21.907Z,0.70
2023-01-13T09:24:48.356Z,0.55
2023-01-13T09:27:15.512Z,0.40
2023-01-13T09:29:41.983Z,0.38
2023-01-13T09:32:11.949Z,0.80
2023-01-13T09:34:57.011Z,2.00
2023-01-13T09:37:23.528Z,2.47
2023-01-13T09:39:49.919Z,1.02
2023-01-13T09:42:45.920Z,0.73
2023-01-13T09:45:18.901Z,0.57
2023-01-13T09:48:03.793Z,0.47
2023-01-13T09:50:53.763Z,1.13
2023-01-13T09:53:29.081Z,1.20
2023-01-13T09:55:56.077Z,0.60
2023-01-13T09:58:22.805Z,1.00
2023-01-13T10:00:55.514Z,0.93
2023-01-13T10:03:30.275Z,1.25
2023-01-13T10:06:17.866Z,0.93
2023-01-13T10:08:46.954Z,1.35
2023-01-13T10:11:36.267Z,0.88
2023-01-13T10:14:13.438Z,0.73
2023-01-13T10:17:24.940Z,2.33
2023-01-13T10:20:02.427Z,1.00
2023-01-13T10:22:38.083Z,1.13
2023-01-13T10:25:22.164Z,1.38
2023-01-13T10:27:51.323Z,1.27
2023-01-13T10:30:19.634Z,0.60
2023-01-13T10:33:00.103Z,1.45
2023-01-13T10:35:53.411Z,0.80
2023-01-13T10:38:23.671Z,1.25
2023-01-13T10:40:57.521Z,1.15
2023-01-13T10:43:24.659Z,1.05
2023-01-13T10:46:06.147Z,0.85
2023-01-13T10:48:52.918Z,0.90
2023-01-13T10:51:27.454Z,0.85
2023-01-13T10:53:55.913Z,1.20
2023-01-13T10:56:25.212Z,0.77
2023-01-13T10:58:51.667Z,0.73
2023-01-13T11:01:27.203Z,1.40
2023-01-13T11:03:55.103Z,1.10
2023-01-13T11:06:28.474Z,0.77
2023-01-13T11:08:58.365Z,1.88
2023-01-13T11:11:43.330Z,1.17
2023-01-13T11:14:39.284Z,2.00
2023-01-13T11:17:10.675Z,0.80
2023-01-13T11:19:41.971Z,0.88
2023-01-13T11:22:14.229Z,1.00
2023-01-13T11:24:50.035Z,1.40
2023-01-13T11:27:24.090Z,1.15
2023-01-13T11:32:45.973Z,1.65
2023-01-13T11:35:18.839Z,1.15
2023-01-13T11:37:52.424Z,1.63
2023-01-13T11:40:36.324Z,1.50
2023-01-13T11:43:36.257Z,1.25
2023-01-13T11:46:02.933Z,1.50
2023-01-13T11:48:32.677Z,0.98
2023-01-13T11:51:17.651Z,1.88
2023-01-13T11:54:04.898Z,1.30
2023-01-13T11:56:49.326Z,1.38
2023-01-13T11:59:33.588Z,1.92
2023-01-13T12:02:23.631Z,1.00
2023-01-13T12:05:08.702Z,1.20
2023-01-13T12:07:46.912Z,1.58
2023-01-13T12:10:34.680Z,1.05
2023-01-13T12:13:44.022Z,1.65
2023-01-13T12:16:23.315Z,1.35
2023-01-13T12:19:08.035Z,1.38
2023-01-13T12:22:08.752Z,2.42
2023-01-13T12:24:41.477Z,1.58
2023-01-13T12:27:14.995Z,1.05
2023-01-13T12:29:41.604Z,2.85
2023-01-13T12:32:14.781Z,1.52
2023-01-13T12:34:52.224Z,1.00
2023-01-13T12:37:21.375Z,1.05
2023-01-13T12:40:14.131Z,1.13
2023-01-13T12:43:02.373Z,0.93
2023-01-13T12:45:30.849Z,2.10
2023-01-13T12:47:58.452Z,1.48
2023-01-13T12:50:24.852Z,2.00
2023-01-13T12:52:56.770Z,1.38
2023-01-13T12:55:35.608Z,1.90
2023-01-13T12:58:04.708Z,1.63
2023-01-13T13:00:51.992Z,1.70
2023-01-13T13:03:27.355Z,1.25
2023-01-13T13:06:01.862Z,1.73
2023-01-13T13:08:46.516Z,2.78
2023-01-13T13:11:32.809Z,1.40
2023-01-13T13:14:10.384Z,1.35
2023-01-13T13:16:51.527Z,1.48
2023-01-13T13:19:17.995Z,1.80
2023-01-13T13:22:12.523Z,1.58
2023-01-13T13:25:02.302Z,1.30
2023-01-13T13:27:31.697Z,1.60
2023-01-13T13:30:11.616Z,1.50
2023-01-13T13:33:11.859Z,2.33
2023-01-13T13:35:44.494Z,1.58
2023-01-13T13:38:42.003Z,0.75
2023-01-13T13:41:37.871Z,0.70
2023-01-13T13:44:41.432Z,0.80
2023-01-13T13:47:10.206Z,1.45
2023-01-13T13:49:37.617Z,1.40
2023-01-13T13:52:10.884Z,0.73
2023-01-13T13:54:40.788Z,1.27
2023-01-13T13:57:31.998Z,1.75
2023-01-13T14:00:00.131Z,4.25
2023-01-13T14:02:30.142Z,1.63
2023-01-13T14:05:09.015Z,1.08
2023-01-13T14:07:43.972Z,1.17
2023-01-13T14:10:24.611Z,1.65
2023-01-13T14:12:52.206Z,1.05
2023-01-13T14:15:36.207Z,0.90
2023-01-13T14:18:12.556Z,1.02
2023-01-13T14:20:39.736Z,1.52
2023-01-13T14:23:06.347Z,0.75
2023-01-13T14:25:37.060Z,1.88
2023-01-13T14:28:17.207Z,1.88
2023-01-13T14:30:44.412Z,1.60
2023-01-13T14:33:20.918Z,1.45
2023-01-13T14:36:07.255Z,1.67
2023-01-13T14:38:33.699Z,1.92
2023-01-13T14:41:22.613Z,1.52
2023-01-13T14:43:51.012Z,1.10
2023-01-13T14:46:17.912Z,1.63
2023-01-13T14:48:47.894Z,1.52
2023-01-13T14:51:23.406Z,0.95
2023-01-13T14:53:50.285Z,1.23
2023-01-13T14:56:43.597Z,1.25
2023-01-13T14:59:31.912Z,1.55
2023-01-13T15:01:58.890Z,1.75
2023-01-13T15:04:34.121Z,1.63
2023-01-13T15:07:01.391Z,1.10
2023-01-13T15:09:33.385Z,0.88
2023-01-13T15:12:12.793Z,1.20
2023-01-13T15:14:39.887Z,1.23
2023-01-13T15:17:15.471Z,2.40
2023-01-13T15:19:41.957Z,1.35
2023-01-13T15:22:08.302Z,0.90
2023-01-13T15:24:34.704Z,1.00
2023-01-13T15:27:13.067Z,1.75
2023-01-13T15:29:39.548Z,1.10
2023-01-13T15:32:10.452Z,1.85
2023-01-13T15:34:36.873Z,1.38
2023-01-13T15:37:03.256Z,1.70
2023-01-13T15:39:29.646Z,1.25
2023-01-13T15:42:15.303Z,2.55
2023-01-13T15:45:00.125Z,1.40
2023-01-13T15:47:27.015Z,1.40
2023-01-13T15:49:54.224Z,1.10
2023-01-13T15:52:23.559Z,1.17
2023-01-13T15:54:51.887Z,1.90
2023-01-13T15:57:31.298Z,1.67
2023-01-13T16:00:02.586Z,2.10
2023-01-13T16:02:33.114Z,1.70
2023-01-13T16:04:59.647Z,2.22
2023-01-13T16:07:26.211Z,2.13
2023-01-13T16:09:53.164Z,2.17
2023-01-13T16:12:19.889Z,1.83
2023-01-13T16:14:46.442Z,2.22
2023-01-13T16:17:19.217Z,1.50
2023-01-13T16:19:46.081Z,1.60
2023-01-13T16:22:14.495Z,3.92
2023-01-13T16:24:41.338Z,2.50
2023-01-13T16:27:14.853Z,1.67
2023-01-13T16:29:42.000Z,1.83
2023-01-13T16:32:08.574Z,2.33
2023-01-13T16:34:35.096Z,1.83
2023-01-13T16:37:01.643Z,0.90
2023-01-13T16:39:28.299Z,0.90
2023-01-13T16:41:55.315Z,1.10
2023-01-13T16:44:21.796Z,1.08
2023-01-13T16:46:48.615Z,1.58
2023-01-13T16:49:16.481Z,1.10
2023-01-13T16:51:43.149Z,1.23
2023-01-13T16:54:09.660Z,1.55
2023-01-13T16:56:37.058Z,1.05
2023-01-13T16:59:09.235Z,1.73
2023-01-13T17:01:39.776Z,1.83
2023-01-13T17:04:06.953Z,1.70
2023-01-13T17:06:41.450Z,1.65
2023-01-13T17:09:15.610Z,2.50
2023-01-13T17:11:42.091Z,2.58
2023-01-13T17:14:19.374Z,2.05
2023-01-13T17:16:46.552Z,2.33
2023-01-13T17:19:13.295Z,1.70
2023-01-13T17:21:40.277Z,2.65
2023-01-13T17:24:07.857Z,1.10
2023-01-13T17:26:57.324Z,2.40
2023-01-13T17:29:25.675Z,1.80
2023-01-13T17:31:52.797Z,1.92
2023-01-13T17:34:21.061Z,1.60
2023-01-13T17:36:48.443Z,1.70
2023-01-13T17:39:16.743Z,1.73
2023-01-13T17:41:43.134Z,2.33
2023-01-13T17:44:13.179Z,2.35
2023-01-13T17:46:40.666Z,1.25
2023-01-13T17:49:07.066Z,2.08
2023-01-13T17:51:33.682Z,1.38
2023-01-13T17:54:00.086Z,2.33
2023-01-13T17:56:26.538Z,1.42
2023-01-13T17:58:53.018Z,1.85
2023-01-13T18:01:21.401Z,1.92
2023-01-13T18:03:48.838Z,1.67
2023-01-13T18:06:21.846Z,1.77
2023-01-13T18:11:18.786Z,1.55
2023-01-13T18:13:49.370Z,1.98
2023-01-13T18:16:18.331Z,2.05
2023-01-13T18:18:46.826Z,1.52
2023-01-13T18:21:41.963Z,1.65
2023-01-13T18:24:34.969Z,2.30
2023-01-13T18:27:21.104Z,1.92
2023-01-13T18:29:53.241Z,1.98
2023-01-13T18:32:21.118Z,2.53
2023-01-13T18:34:48.017Z,2.58
2023-01-13T18:37:16.586Z,2.20
2023-01-13T18:39:42.958Z,1.60
2023-01-13T18:42:28.567Z,1.70
2023-01-13T18:44:57.607Z,2.20
2023-01-13T18:47:30.271Z,2.25
2023-01-13T18:49:57.348Z,1.98
2023-01-13T18:52:24.554Z,1.67
2023-01-13T18:54:51.150Z,2.08
2023-01-13T18:57:18.016Z,1.70
2023-01-13T18:59:44.585Z,2.72
2023-01-13T19:02:15.729Z,2.33
2023-01-13T19:04:43.094Z,1.50
2023-01-13T19:07:12.468Z,1.98
2023-01-13T19:09:39.653Z,1.50
2023-01-13T19:12:09.961Z,1.52
2023-01-13T19:14:37.614Z,2.25
2023-01-13T19:17:09.296Z,1.85
2023-01-13T19:19:46.780Z,1.50
2023-01-13T19:22:16.299Z,1.00
2023-01-13T19:24:42.897Z,1.10
2023-01-13T19:27:10.695Z,1.65
2023-01-13T19:29:37.278Z,2.60
2023-01-13T19:32:03.765Z,1.23
2023-01-13T19:34:30.317Z,2.25
2023-01-13T19:36:56.906Z,1.17
2023-01-13T19:39:24.021Z,1.73
2023-01-13T19:42:09.168Z,1.60
2023-01-13T19:44:53.991Z,3.00
2023-01-13T19:47:20.535Z,1.40
2023-01-13T19:49:46.979Z,7.88
2023-01-13T19:52:14.166Z,1.92
2023-01-13T19:54:40.619Z,2.60
2023-01-13T19:57:07.076Z,1.58
2023-01-13T19:59:33.677Z,1.60
2023-01-13T20:02:01.663Z,1.83
2023-01-13T20:04:37.538Z,1.95
2023-01-13T20:07:06.047Z,2.42
2023-01-13T20:09:34.065Z,1.77
2023-01-13T20:12:06.541Z,1.50
2023-01-13T20:14:33.054Z,1.33
2023-01-13T20:17:00.248Z,1.80
2023-01-13T20:19:26.752Z,2.00
2023-01-13T20:21:53.085Z,3.83
2023-01-13T20:24:19.876Z,2.80
2023-01-13T20:26:47.017Z,2.78
2023-01-13T20:29:13.628Z,2.90
2023-01-13T20:31:40.072Z,1.63
2023-01-13T20:34:06.559Z,1.20
2023-01-13T20:36:37.188Z,1.30
2023-01-13T20:39:06.535Z,2.47
2023-01-13T20:41:51.596Z,2.30
2023-01-13T20:44:18.050Z,2.00
2023-01-13T20:46:45.269Z,1.63
2023-01-13T20:49:13.591Z,2.08
2023-01-13T20:51:40.150Z,1.40
2023-01-13T20:54:06.560Z,1.80
2023-01-13T20:56:33.289Z,2.65
2023-01-13T20:58:59.719Z,1.10
2023-01-13T21:01:26.709Z,1.42
2023-01-13T21:03:57.089Z,1.23
2023-01-13T21:06:23.753Z,1.85
2023-01-13T21:08:54.132Z,1.50
2023-01-13T21:11:41.083Z,1.50
2023-01-13T21:14:40.087Z,1.70
2023-01-13T21:17:09.065Z,1.45
2023-01-13T21:19:35.759Z,1.75
2023-01-13T21:22:03.928Z,1.17
2023-01-13T21:24:30.294Z,2.45
2023-01-13T21:27:00.845Z,1.98
2023-01-13T21:29:27.267Z,3.70
2023-01-13T21:31:54.323Z,1.83
2023-01-13T21:34:20.822Z,3.58
2023-01-13T21:36:47.239Z,2.95
2023-01-13T21:39:15.341Z,1.92
2023-01-13T21:42:00.148Z,1.52
2023-01-13T21:44:45.042Z,2.17
2023-01-13T21:47:35.468Z,2.33
2023-01-13T21:50:02.771Z,1.55
2023-01-13T21:52:29.216Z,1.73
2023-01-13T21:55:14.039Z,1.40
2023-01-13T21:57:40.397Z,1.30
2023-01-13T22:00:07.490Z,1.90
2023-01-13T22:02:35.719Z,1.88
2023-01-13T22:05:05.312Z,1.23
2023-01-13T22:07:33.095Z,1.80
2023-01-13T22:09:59.629Z,2.00
2023-01-13T22:12:26.749Z,2.38
2023-01-13T22:14:54.480Z,1.70
2023-01-13T22:17:22.846Z,1.75
2023-01-13T22:19:50.654Z,2.35
2023-01-13T22:22:18.669Z,1.95
2023-01-13T22:24:47.565Z,1.80
2023-01-13T22:27:18.160Z,1.80
2023-01-13T22:29:45.690Z,1.92
2023-01-13T22:32:12.212Z,2.05
2023-01-13T22:34:38.752Z,2.65
2023-01-13T22:37:05.461Z,1.88
2023-01-13T22:39:32.202Z,2.08
2023-01-13T22:41:58.744Z,2.50
2023-01-13T22:44:25.266Z,1.70
2023-01-13T22:46:51.932Z,2.45
2023-01-13T22:49:18.734Z,3.05
2023-01-13T22:51:45.143Z,2.40
2023-01-13T22:54:12.421Z,1.92
2023-01-13T22:56:39.484Z,2.17
2023-01-13T22:59:06.905Z,2.13
2023-01-13T23:01:34.908Z,2.15
2023-01-13T23:04:02.629Z,2.22
2023-01-13T23:06:30.841Z,2.15
2023-01-13T23:08:57.421Z,2.00
2023-01-13T23:11:26.699Z,2.10
2023-01-13T23:13:58.422Z,2.08
2023-01-13T23:16:24.992Z,2.63
2023-01-13T23:18:51.581Z,1.75
2023-01-13T23:21:21.820Z,2.47
2023-01-13T23:23:48.321Z,2.13
2023-01-13T23:26:14.930Z,2.33
2023-01-13T23:28:41.328Z,3.00
2023-01-13T23:31:16.516Z,2.63
2023-01-13T23:33:43.883Z,2.85
2023-01-13T23:36:16.363Z,1.95
2023-01-13T23:38:43.301Z,2.08
2023-01-13T23:41:11.681Z,2.70
2023-01-13T23:43:38.085Z,2.50
2023-01-13T23:46:10.779Z,2.63
2023-01-13T23:48:37.493Z,2.80
2023-01-13T23:51:10.558Z,1.92
2023-01-13T23:56:15.574Z,2.00
2023-01-13T23:58:43.398Z,2.03
